createdAt,value
2023-03-29T00:01:06.709Z,101547.38
2023-03-29T00:03:36.212Z,101542.13
2023-03-29T00:06:05.702Z,101532.78
2023-03-29T00:08:35.188Z,101528.38
2023-03-29T00:11:03.571Z,101518.09
2023-03-29T00:13:31.950Z,101523.16
2023-03-29T00:16:00.322Z,101523.00
2023-03-29T00:18:28.406Z,101528.09
2023-03-29T00:20:58.436Z,101523.72
2023-03-29T00:23:27.190Z,101528.09
2023-03-29T00:25:56.137Z,101531.66
2023-03-29T00:28:24.842Z,101529.03
2023-03-29T00:30:53.246Z,101529.72
2023-03-29T00:33:22.888Z,101526.28
2023-03-29T00:35:54.441Z,101519.41
2023-03-29T00:38:24.001Z,101521.06
2023-03-29T00:40:52.177Z,101523.72
2023-03-29T00:43:20.275Z,101514.09
2023-03-29T00:45:50.515Z,101508.09
2023-03-29T00:48:21.645Z,101500.94
2023-03-29T00:50:58.103Z,101494.91
2023-03-29T00:53:32.378Z,101490.56
2023-03-29T00:56:05.366Z,101496.63
2023-03-29T00:58:39.377Z,101479.16
2023-03-29T01:01:11.120Z,101479.19
2023-03-29T01:03:46.669Z,101471.53
2023-03-29T01:06:19.477Z,101463.50
2023-03-29T01:08:55.772Z,101467.97
2023-03-29T01:11:28.575Z,101462.00
2023-03-29T01:14:00.195Z,101468.84
2023-03-29T01:16:30.423Z,101453.03
2023-03-29T01:18:59.364Z,101453.13
2023-03-29T01:21:32.412Z,101447.94
2023-03-29T01:24:30.352Z,101445.44
2023-03-29T01:27:05.374Z,101429.56
2023-03-29T01:29:38.619Z,101432.09
2023-03-29T01:32:10.462Z,101426.97
2023-03-29T01:34:45.512Z,101426.91
2023-03-29T01:37:24.981Z,101430.56
2023-03-29T01:39:53.568Z,101423.28
2023-03-29T01:42:35.112Z,101426.91
2023-03-29T01:45:12.738Z,101430.28
2023-03-29T01:47:47.572Z,101424.31
2023-03-29T01:50:20.467Z,101419.88
2023-03-29T01:52:54.886Z,101427.44
2023-03-29T01:55:27.044Z,101420.22
2023-03-29T01:57:57.784Z,101422.97
2023-03-29T02:00:29.907Z,101416.81
2023-03-29T02:03:02.074Z,101414.25
2023-03-29T02:05:32.471Z,101417.66
2023-03-29T02:08:02.839Z,101411.44
2023-03-29T02:10:32.078Z,101408.75
2023-03-29T02:13:00.977Z,101407.13
2023-03-29T02:15:30.508Z,101402.75
2023-03-29T02:17:58.685Z,101404.31
2023-03-29T02:20:31.644Z,101405.00
2023-03-29T02:23:05.702Z,101405.00
2023-03-29T02:25:33.837Z,101400.75
2023-03-29T02:28:02.662Z,101404.22
2023-03-29T02:30:42.080Z,101392.91
2023-03-29T02:33:15.958Z,101399.38
2023-03-29T02:35:49.923Z,101394.44
2023-03-29T02:38:18.892Z,101397.06
2023-03-29T02:40:47.894Z,101384.03
2023-03-29T02:43:17.587Z,101390.00
2023-03-29T02:45:48.260Z,101380.44
2023-03-29T02:48:21.274Z,101388.28
2023-03-29T02:50:54.686Z,101389.06
2023-03-29T02:53:27.819Z,101387.16
2023-03-29T02:55:56.992Z,101380.44
2023-03-29T02:58:26.673Z,101383.84
2023-03-29T03:00:58.856Z,101376.06
2023-03-29T03:03:27.682Z,101375.31
2023-03-29T03:05:56.068Z,101375.22
2023-03-29T03:08:24.093Z,101367.41
2023-03-29T03:10:52.582Z,101363.22
2023-03-29T03:13:23.121Z,101365.69
2023-03-29T03:15:51.242Z,101364.16
2023-03-29T03:18:20.835Z,101355.50
2023-03-29T03:20:57.010Z,101347.16
2023-03-29T03:23:25.459Z,101336.88
2023-03-29T03:25:53.843Z,101335.19
2023-03-29T03:28:24.313Z,101337.50
2023-03-29T03:30:52.432Z,101329.88
2023-03-29T03:33:24.186Z,101323.75
2023-03-29T03:35:52.790Z,101317.41
2023-03-29T03:38:20.975Z,101310.41
2023-03-29T03:40:54.801Z,101311.34
2023-03-29T03:43:22.933Z,101314.88
2023-03-29T03:45:54.049Z,101318.38
2023-03-29T03:48:24.318Z,101314.06
2023-03-29T03:50:54.133Z,101318.25
2023-03-29T03:53:22.864Z,101314.88
2023-03-29T03:55:51.230Z,101316.63
2023-03-29T03:58:19.923Z,101320.06
2023-03-29T04:00:50.372Z,101320.84
2023-03-29T04:03:19.371Z,101313.72
2023-03-29T04:05:49.111Z,101319.66
2023-03-29T04:08:17.208Z,101312.03
2023-03-29T04:10:53.279Z,101307.50
2023-03-29T04:13:21.707Z,101311.75
2023-03-29T04:15:54.264Z,101308.56
2023-03-29T04:18:22.465Z,101316.91
2023-03-29T04:20:52.260Z,101318.50
2023-03-29T04:23:20.405Z,101322.06
2023-03-29T04:25:48.440Z,101322.06
2023-03-29T04:28:16.584Z,101316.19
2023-03-29T04:30:46.747Z,101309.16
2023-03-29T04:33:14.845Z,101309.91
2023-03-29T04:35:43.599Z,101316.91
2023-03-29T04:38:13.013Z,101310.69
2023-03-29T04:40:42.195Z,101305.28
2023-03-29T04:43:10.189Z,101312.19
2023-03-29T04:45:38.228Z,101307.88
2023-03-29T04:48:06.374Z,101304.13
2023-03-29T04:50:36.224Z,101306.00
2023-03-29T04:53:04.280Z,101298.22
2023-03-29T04:55:33.747Z,101296.53
2023-03-29T04:58:02.734Z,101294.44
2023-03-29T05:00:33.105Z,101287.63
2023-03-29T05:03:01.295Z,101281.72
2023-03-29T05:05:29.430Z,101288.41
2023-03-29T05:07:57.583Z,101297.31
2023-03-29T05:10:25.860Z,101297.78
2023-03-29T05:12:56.247Z,101294.13
2023-03-29T05:15:24.616Z,101296.25
2023-03-29T05:17:52.847Z,101296.25
2023-03-29T05:20:22.152Z,101292.78
2023-03-29T05:22:50.386Z,101293.75
2023-03-29T05:25:19.632Z,101286.69
2023-03-29T05:27:47.775Z,101287.47
2023-03-29T05:30:17.542Z,101284.78
2023-03-29T05:32:46.957Z,101286.50
2023-03-29T05:35:15.439Z,101288.31
2023-03-29T05:37:47.239Z,101290.06
2023-03-29T05:40:15.349Z,101293.38
2023-03-29T05:42:43.511Z,101297.75
2023-03-29T05:45:12.610Z,101292.34
2023-03-29T05:47:42.078Z,101299.94
2023-03-29T05:50:12.552Z,101304.25
2023-03-29T05:52:41.113Z,101305.94
2023-03-29T05:55:10.396Z,101302.53
2023-03-29T05:57:38.829Z,101303.41
2023-03-29T06:00:15.802Z,101307.66
2023-03-29T06:02:45.370Z,101305.84
2023-03-29T06:05:13.962Z,101293.47
2023-03-29T06:07:42.518Z,101308.09
2023-03-29T06:10:11.279Z,101306.63
2023-03-29T06:12:39.396Z,101304.03
2023-03-29T06:15:08.591Z,101305.63
2023-03-29T06:17:37.085Z,101298.56
2023-03-29T06:20:10.980Z,101298.41
2023-03-29T06:22:39.512Z,101294.94
2023-03-29T06:25:09.321Z,101295.66
2023-03-29T06:27:37.792Z,101302.28
2023-03-29T06:30:07.207Z,101303.13
2023-03-29T06:32:35.852Z,101302.94
2023-03-29T06:35:05.067Z,101288.91
2023-03-29T06:37:34.825Z,101301.75
2023-03-29T06:40:03.484Z,101304.03
2023-03-29T06:42:31.667Z,101302.03
2023-03-29T06:45:00.123Z,101304.47
2023-03-29T06:47:31.012Z,101308.47
2023-03-29T06:49:59.410Z,101310.19
2023-03-29T06:52:27.552Z,101314.38
2023-03-29T06:54:56.989Z,101302.88
2023-03-29T06:57:25.490Z,101316.56
2023-03-29T06:59:53.924Z,101317.25
2023-03-29T07:02:22.740Z,101320.75
2023-03-29T07:04:51.723Z,101308.59
2023-03-29T07:07:22.789Z,101312.63
2023-03-29T07:09:54.207Z,101311.03
2023-03-29T07:12:24.683Z,101321.28
2023-03-29T07:14:52.912Z,101326.56
2023-03-29T07:17:21.029Z,101322.72
2023-03-29T07:19:49.267Z,101315.59
2023-03-29T07:22:17.585Z,101317.19
2023-03-29T07:24:45.756Z,101309.41
2023-03-29T07:27:14.718Z,101312.72
2023-03-29T07:29:48.209Z,101323.91
2023-03-29T07:32:16.600Z,101316.66
2023-03-29T07:34:44.996Z,101306.50
2023-03-29T07:37:13.240Z,101311.81
2023-03-29T07:39:41.418Z,101309.66
2023-03-29T07:42:09.605Z,101314.03
2023-03-29T07:44:37.694Z,101314.22
2023-03-29T07:47:07.149Z,101314.41
2023-03-29T07:49:35.260Z,101310.75
2023-03-29T07:52:03.832Z,101315.72
2023-03-29T07:54:32.799Z,101323.25
2023-03-29T07:57:00.993Z,101318.50
2023-03-29T07:59:29.041Z,101321.56
2023-03-29T08:01:57.387Z,101321.16
2023-03-29T08:04:27.080Z,101313.91
2023-03-29T08:06:55.337Z,101315.97
2023-03-29T08:09:27.310Z,101315.28
2023-03-29T08:11:58.340Z,101322.00
2023-03-29T08:14:26.497Z,101320.94
2023-03-29T08:16:56.836Z,101318.97
2023-03-29T08:19:27.153Z,101323.06
2023-03-29T08:21:55.260Z,101314.53
2023-03-29T08:24:23.310Z,101321.16
2023-03-29T08:26:51.333Z,101326.97
2023-03-29T08:29:19.380Z,101322.28
2023-03-29T08:31:47.721Z,101319.75
2023-03-29T08:34:16.136Z,101311.81
2023-03-29T08:36:45.795Z,101315.13
2023-03-29T08:39:14.011Z,101313.00
2023-03-29T08:41:54.189Z,101309.06
2023-03-29T08:44:41.776Z,101314.94
2023-03-29T08:47:17.219Z,101309.88
2023-03-29T08:49:48.477Z,101306.00
2023-03-29T08:52:24.579Z,101304.31
2023-03-29T08:54:57.137Z,101307.38
2023-03-29T08:57:30.535Z,101303.56
2023-03-29T09:00:01.259Z,101298.72
2023-03-29T09:02:32.891Z,101292.13
2023-03-29T09:05:09.805Z,101298.25
2023-03-29T09:07:39.262Z,101306.25
2023-03-29T09:10:10.277Z,101309.72
2023-03-29T09:12:52.213Z,101316.84
2023-03-29T09:15:25.513Z,101305.69
2023-03-29T09:18:03.592Z,101312.72
2023-03-29T09:20:40.419Z,101306.44
2023-03-29T09:23:34.750Z,101302.88
2023-03-29T09:26:11.277Z,101309.31
2023-03-29T09:28:43.441Z,101315.25
2023-03-29T09:31:16.820Z,101297.28
2023-03-29T09:33:50.652Z,101308.44
2023-03-29T09:36:24.900Z,101304.56
2023-03-29T09:38:55.736Z,101303.88
2023-03-29T09:41:29.613Z,101298.34
2023-03-29T09:44:02.022Z,101300.28
2023-03-29T09:46:39.341Z,101296.91
2023-03-29T09:49:16.063Z,101288.31
2023-03-29T09:51:48.634Z,101293.75
2023-03-29T09:54:18.432Z,101286.25
2023-03-29T09:56:46.736Z,101296.25
2023-03-29T09:59:15.187Z,101288.63
2023-03-29T10:01:45.957Z,101294.56
2023-03-29T10:04:15.112Z,101291.66
2023-03-29T10:06:47.536Z,101297.97
2023-03-29T10:09:20.877Z,101293.06
2023-03-29T10:11:53.219Z,101296.09
2023-03-29T10:14:30.040Z,101293.72
2023-03-29T10:16:59.043Z,101297.19
2023-03-29T10:19:34.497Z,101300.28
2023-03-29T10:22:05.532Z,101290.31
2023-03-29T10:24:35.109Z,101295.66
2023-03-29T10:27:05.814Z,101292.53
2023-03-29T10:29:38.459Z,101278.78
2023-03-29T10:32:16.484Z,101283.19
2023-03-29T10:34:46.900Z,101278.69
2023-03-29T10:37:16.684Z,101279.56
2023-03-29T10:39:47.707Z,101277.63
2023-03-29T10:42:18.168Z,101270.41
2023-03-29T10:44:56.131Z,101276.00
2023-03-29T10:47:24.601Z,101277.28
2023-03-29T10:49:56.648Z,101271.28
2023-03-29T10:52:25.482Z,101279.66
2023-03-29T10:55:00.036Z,101273.94
2023-03-29T10:57:35.314Z,101270.75
2023-03-29T11:00:10.898Z,101266.63
2023-03-29T11:03:20.984Z,101283.22
2023-03-29T11:05:57.366Z,101284.06
2023-03-29T11:08:38.476Z,101277.22
2023-03-29T11:11:31.820Z,101269.69
2023-03-29T11:14:07.268Z,101264.53
2023-03-29T11:16:42.037Z,101269.34
2023-03-29T11:19:37.574Z,101261.25
2023-03-29T11:22:15.068Z,101257.44
2023-03-29T11:24:57.685Z,101257.22
2023-03-29T11:27:34.577Z,101248.16
2023-03-29T11:30:09.317Z,101240.28
2023-03-29T11:32:49.210Z,101235.78
2023-03-29T11:35:37.557Z,101240.91
2023-03-29T11:38:15.613Z,101245.00
2023-03-29T11:40:56.642Z,101236.13
2023-03-29T11:43:32.330Z,101230.09
2023-03-29T11:46:04.989Z,101222.38
2023-03-29T11:48:39.734Z,101222.06
2023-03-29T11:51:14.288Z,101219.47
2023-03-29T11:53:51.303Z,101222.47
2023-03-29T11:56:26.255Z,101231.34
2023-03-29T11:59:04.749Z,101235.03
2023-03-29T12:01:38.550Z,101237.56
2023-03-29T12:04:13.275Z,101232.00
2023-03-29T12:06:48.017Z,101235.22
2023-03-29T12:09:26.619Z,101236.56
2023-03-29T12:12:04.480Z,101226.22
2023-03-29T12:14:47.878Z,101235.63
2023-03-29T12:17:21.214Z,101235.31
2023-03-29T12:20:02.382Z,101234.97
2023-03-29T12:22:30.507Z,101228.00
2023-03-29T12:24:59.416Z,101229.78
2023-03-29T12:27:31.439Z,101227.72
2023-03-29T12:30:25.039Z,101226.66
2023-03-29T12:33:15.918Z,101223.06
2023-03-29T12:35:56.807Z,101235.53
2023-03-29T12:38:28.194Z,101228.16
2023-03-29T12:41:02.127Z,101221.28
2023-03-29T12:43:33.159Z,101214.00
2023-03-29T12:46:10.664Z,101219.72
2023-03-29T12:48:41.704Z,101218.44
2023-03-29T12:51:15.017Z,101220.47
2023-03-29T12:53:46.374Z,101222.47
2023-03-29T12:56:18.900Z,101222.13
2023-03-29T12:59:18.581Z,101210.84
2023-03-29T13:02:00.316Z,101217.47
2023-03-29T13:07:30.922Z,101199.34
2023-03-29T13:10:01.510Z,101191.84
2023-03-29T13:12:35.941Z,101191.09
2023-03-29T13:15:06.816Z,101186.22
2023-03-29T13:17:50.659Z,101182.22
2023-03-29T13:20:33.877Z,101183.63
2023-03-29T13:23:17.994Z,101178.75
2023-03-29T13:26:01.327Z,101168.28
2023-03-29T13:28:39.278Z,101159.13
2023-03-29T13:31:21.331Z,101163.75
2023-03-29T13:33:59.397Z,101152.16
2023-03-29T13:36:42.763Z,101151.94
2023-03-29T13:39:17.430Z,101147.63
2023-03-29T13:41:50.232Z,101140.91
2023-03-29T13:44:24.556Z,101140.56
2023-03-29T13:47:04.813Z,101141.22
2023-03-29T13:49:36.725Z,101147.25
2023-03-29T13:52:16.626Z,101141.50
2023-03-29T13:54:51.914Z,101136.09
2023-03-29T13:57:21.831Z,101126.47
2023-03-29T13:59:57.755Z,101126.53
2023-03-29T14:02:41.919Z,101118.31
2023-03-29T14:05:17.620Z,101117.38
2023-03-29T14:07:51.567Z,101107.66
2023-03-29T14:10:23.824Z,101118.88
2023-03-29T14:12:52.268Z,101110.44
2023-03-29T14:15:24.786Z,101121.63
2023-03-29T14:18:00.292Z,101114.50
2023-03-29T14:20:32.640Z,101106.56
2023-03-29T14:23:01.255Z,101111.47
2023-03-29T14:25:30.708Z,101101.88
2023-03-29T14:27:58.761Z,101099.63
2023-03-29T14:30:29.246Z,101096.53
2023-03-29T14:32:57.511Z,101086.06
2023-03-29T14:35:33.905Z,101075.94
2023-03-29T14:38:03.773Z,101069.34
2023-03-29T14:40:32.798Z,101072.75
2023-03-29T14:43:06.735Z,101071.06
2023-03-29T14:45:35.063Z,101073.13
2023-03-29T14:48:06.896Z,101067.22
2023-03-29T14:50:36.555Z,101070.72
2023-03-29T14:53:06.116Z,101052.72
2023-03-29T14:55:36.594Z,101055.00
2023-03-29T14:58:04.724Z,101052.34
2023-03-29T15:00:42.324Z,101048.00
2023-03-29T15:03:15.249Z,101039.63
2023-03-29T15:05:49.071Z,101041.94
2023-03-29T15:08:21.030Z,101029.66
2023-03-29T15:10:49.097Z,101026.66
2023-03-29T15:13:23.742Z,101025.91
2023-03-29T15:15:54.917Z,101020.84
2023-03-29T15:18:32.558Z,101016.53
2023-03-29T15:21:02.889Z,101004.50
2023-03-29T15:23:37.942Z,101003.53
2023-03-29T15:26:14.072Z,101003.88
2023-03-29T15:28:49.583Z,100999.94
2023-03-29T15:31:20.922Z,100988.84
2023-03-29T15:33:49.096Z,100990.19
2023-03-29T15:36:18.530Z,100983.94
2023-03-29T15:38:50.588Z,100982.84
2023-03-29T15:41:18.699Z,100970.44
2023-03-29T15:43:46.906Z,100968.28
2023-03-29T15:46:16.406Z,100969.00
2023-03-29T15:48:46.836Z,100972.91
2023-03-29T15:51:15.088Z,100965.72
2023-03-29T15:53:44.513Z,100964.84
2023-03-29T15:56:18.462Z,100956.31
2023-03-29T15:58:47.752Z,100957.63
2023-03-29T16:01:34.055Z,100948.94
2023-03-29T16:04:02.229Z,100942.81
2023-03-29T16:06:34.365Z,100948.59
2023-03-29T16:09:05.224Z,100950.56
2023-03-29T16:11:33.410Z,100940.94
2023-03-29T16:14:03.697Z,100941.88
2023-03-29T16:16:31.888Z,100931.44
2023-03-29T16:19:02.685Z,100919.66
2023-03-29T16:21:30.768Z,100909.81
2023-03-29T16:23:58.791Z,100903.91
2023-03-29T16:26:30.345Z,100905.81
2023-03-29T16:28:58.428Z,100907.31
2023-03-29T16:31:27.196Z,100897.19
2023-03-29T16:33:55.340Z,100897.69
2023-03-29T16:36:23.514Z,100898.00
2023-03-29T16:38:51.658Z,100900.09
2023-03-29T16:41:19.723Z,100890.91
2023-03-29T16:43:49.145Z,100907.88
2023-03-29T16:46:17.349Z,100894.66
2023-03-29T16:48:48.948Z,100895.19
2023-03-29T16:51:17.072Z,100889.06
2023-03-29T16:53:45.252Z,100886.06
2023-03-29T16:56:16.746Z,100887.13
2023-03-29T16:58:45.040Z,100889.31
2023-03-29T17:01:16.776Z,100886.28
2023-03-29T17:03:45.075Z,100877.78
2023-03-29T17:06:13.783Z,100878.84
2023-03-29T17:08:42.955Z,100876.22
2023-03-29T17:11:11.843Z,100870.81
2023-03-29T17:13:40.367Z,100850.66
2023-03-29T17:16:11.073Z,100844.38
2023-03-29T17:18:42.773Z,100822.53
2023-03-29T17:21:11.002Z,100806.19
2023-03-29T17:23:39.013Z,100808.22
2023-03-29T17:26:08.573Z,100836.72
2023-03-29T17:28:39.705Z,100834.91
2023-03-29T17:31:08.530Z,100842.03
2023-03-29T17:33:36.898Z,100831.19
2023-03-29T17:36:08.063Z,100825.69
2023-03-29T17:38:38.040Z,100827.50
2023-03-29T17:41:07.076Z,100809.81
2023-03-29T17:43:35.153Z,100795.03
2023-03-29T17:46:03.330Z,100795.66
2023-03-29T17:48:33.102Z,100797.59
2023-03-29T17:51:01.283Z,100798.78
2023-03-29T17:53:30.687Z,100791.81
2023-03-29T17:55:58.840Z,100787.63
2023-03-29T17:58:27.156Z,100782.09
2023-03-29T18:00:55.743Z,100781.34
2023-03-29T18:03:24.088Z,100789.53
2023-03-29T18:05:52.267Z,100792.88
2023-03-29T18:08:20.303Z,100789.75
2023-03-29T18:10:49.825Z,100784.81
2023-03-29T18:13:17.825Z,100779.91
2023-03-29T18:15:47.590Z,100779.03
2023-03-29T18:18:15.815Z,100777.59
2023-03-29T18:20:45.968Z,100785.03
2023-03-29T18:23:14.034Z,100788.41
2023-03-29T18:25:42.365Z,100786.09
2023-03-29T18:28:12.204Z,100786.31
2023-03-29T18:30:40.359Z,100788.09
2023-03-29T18:33:08.628Z,100793.63
2023-03-29T18:35:37.179Z,100785.09
2023-03-29T18:38:07.852Z,100785.81
2023-03-29T18:40:36.022Z,100790.97
2023-03-29T18:43:04.067Z,100783.59
2023-03-29T18:45:33.862Z,100774.88
2023-03-29T18:48:02.009Z,100773.41
2023-03-29T18:50:30.146Z,100770.59
2023-03-29T18:52:59.733Z,100759.56
2023-03-29T18:55:28.666Z,100761.94
2023-03-29T18:57:57.207Z,100759.63
2023-03-29T19:00:25.260Z,100757.09
2023-03-29T19:02:54.756Z,100759.81
2023-03-29T19:05:22.900Z,100755.25
2023-03-29T19:07:51.163Z,100753.78
2023-03-29T19:10:19.386Z,100758.94
2023-03-29T19:12:47.661Z,100751.81
2023-03-29T19:15:15.781Z,100754.69
2023-03-29T19:17:43.860Z,100749.25
2023-03-29T19:20:14.728Z,100744.63
2023-03-29T19:22:43.063Z,100750.50
2023-03-29T19:25:11.743Z,100748.00
2023-03-29T19:27:39.845Z,100755.31
2023-03-29T19:30:09.238Z,100746.56
2023-03-29T19:32:37.412Z,100738.66
2023-03-29T19:35:06.163Z,100739.81
2023-03-29T19:37:35.793Z,100736.56
2023-03-29T19:40:06.591Z,100724.56
2023-03-29T19:42:35.874Z,100729.94
2023-03-29T19:45:09.240Z,100719.28
2023-03-29T19:47:37.650Z,100723.09
2023-03-29T19:50:09.350Z,100710.00
2023-03-29T19:52:38.868Z,100710.31
2023-03-29T19:55:07.988Z,100718.03
2023-03-29T19:57:36.260Z,100713.72
2023-03-29T20:00:07.996Z,100709.16
2023-03-29T20:02:36.355Z,100690.00
2023-03-29T20:05:04.609Z,100693.56
2023-03-29T20:07:32.880Z,100691.88
2023-03-29T20:10:02.491Z,100675.38
2023-03-29T20:12:30.606Z,100667.13
2023-03-29T20:14:58.620Z,100664.50
2023-03-29T20:17:26.764Z,100655.00
2023-03-29T20:19:55.587Z,100661.13
2023-03-29T20:22:26.225Z,100655.13
2023-03-29T20:24:54.454Z,100650.38
2023-03-29T20:27:24.099Z,100651.44
2023-03-29T20:29:52.105Z,100642.69
2023-03-29T20:32:20.286Z,100648.25
2023-03-29T20:34:48.395Z,100638.88
2023-03-29T20:37:16.543Z,100628.25
2023-03-29T20:39:45.257Z,100628.34
2023-03-29T20:42:14.158Z,100630.03
2023-03-29T20:44:50.453Z,100629.94
2023-03-29T20:47:19.384Z,100615.91
2023-03-29T20:49:54.197Z,100616.91
2023-03-29T20:52:24.169Z,100613.41
2023-03-29T20:54:52.396Z,100613.41
2023-03-29T20:57:21.766Z,100609.66
2023-03-29T20:59:51.255Z,100595.47
2023-03-29T21:02:21.405Z,100591.06
2023-03-29T21:04:53.288Z,100589.38
2023-03-29T21:07:22.906Z,100586.13
2023-03-29T21:09:51.036Z,100592.56
2023-03-29T21:12:20.228Z,100590.09
2023-03-29T21:14:48.459Z,100577.78
2023-03-29T21:17:18.161Z,100577.50
2023-03-29T21:19:46.239Z,100580.59
2023-03-29T21:22:14.795Z,100569.38
2023-03-29T21:24:43.100Z,100569.59
2023-03-29T21:27:11.476Z,100561.00
2023-03-29T21:29:41.849Z,100561.72
2023-03-29T21:32:10.887Z,100556.06
2023-03-29T21:34:40.597Z,100555.94
2023-03-29T21:37:08.972Z,100554.59
2023-03-29T21:39:37.059Z,100547.91
2023-03-29T21:42:05.442Z,100545.41
2023-03-29T21:44:34.453Z,100547.75
2023-03-29T21:47:02.715Z,100542.38
2023-03-29T21:49:31.958Z,100538.19
2023-03-29T21:52:01.574Z,100525.75
2023-03-29T21:54:29.684Z,100527.19
2023-03-29T21:56:57.774Z,100530.66
2023-03-29T21:59:25.997Z,100527.06
2023-03-29T22:01:54.030Z,100519.41
2023-03-29T22:04:35.338Z,100513.16
2023-03-29T22:07:05.870Z,100514.59
2023-03-29T22:09:35.055Z,100501.69
2023-03-29T22:12:04.089Z,100496.03
2023-03-29T22:14:35.108Z,100494.13
2023-03-29T22:17:05.691Z,100495.31
2023-03-29T22:19:39.116Z,100495.31
2023-03-29T22:22:13.565Z,100499.59
2023-03-29T22:24:42.900Z,100496.38
2023-03-29T22:27:11.800Z,100491.13
2023-03-29T22:29:39.958Z,100494.59
2023-03-29T22:32:08.202Z,100491.59
2023-03-29T22:34:36.339Z,100487.31
2023-03-29T22:37:04.464Z,100493.06
2023-03-29T22:39:35.790Z,100488.47
2023-03-29T22:42:04.242Z,100488.09
2023-03-29T22:44:33.876Z,100490.84
2023-03-29T22:47:01.957Z,100480.66
2023-03-29T22:49:33.210Z,100478.25
2023-03-29T22:52:01.629Z,100474.88
2023-03-29T22:54:29.851Z,100477.41
2023-03-29T22:56:59.823Z,100478.91
2023-03-29T22:59:28.073Z,100480.34
2023-03-29T23:01:58.621Z,100476.28
2023-03-29T23:04:26.861Z,100472.84
2023-03-29T23:06:58.462Z,100473.34
2023-03-29T23:09:26.489Z,100467.31
2023-03-29T23:11:54.529Z,100469.78
2023-03-29T23:14:24.058Z,100464.63
2023-03-29T23:16:52.127Z,100459.13
2023-03-29T23:19:20.187Z,100458.53
2023-03-29T23:21:48.190Z,100456.63
2023-03-29T23:24:19.054Z,100449.06
2023-03-29T23:26:49.046Z,100443.06
2023-03-29T23:29:17.147Z,100444.16
2023-03-29T23:31:47.727Z,100442.72
2023-03-29T23:34:15.891Z,100448.94
2023-03-29T23:36:43.879Z,100445.50
2023-03-29T23:39:11.929Z,100439.16
2023-03-29T23:41:40.347Z,100447.38
2023-03-29T23:44:08.584Z,100431.22
2023-03-29T23:46:36.909Z,100431.31
2023-03-29T23:49:06.397Z,100415.41
2023-03-29T23:51:35.080Z,100414.66
2023-03-29T23:54:03.322Z,100419.44
2023-03-29T23:56:31.536Z,100415.84
2023-03-29T23:58:59.586Z,100423.75
